sensor_id;sensor_type;location;lat;lon;timestamp;temperature;humidity
24091;DHT22;12272;52.426;17.100;2023-06-26T00:04:11;16.40;99.90
24091;DHT22;12272;52.426;17.100;2023-06-26T00:09:17;16.20;99.90
24091;DHT22;12272;52.426;17.100;2023-06-26T00:14:19;16.10;99.90
24091;DHT22;12272;52.426;17.100;2023-06-26T00:19:23;16.30;99.90
24091;DHT22;12272;52.426;17.100;2023-06-26T00:24:25;16.30;99.90
24091;DHT22;12272;52.426;17.100;2023-06-26T00:29:28;16.40;99.90
24091;DHT22;12272;52.426;17.100;2023-06-26T00:34:32;16.30;99.90
24091;DHT22;12272;52.426;17.100;2023-06-26T00:39:34;16.20;99.90
24091;DHT22;12272;52.426;17.100;2023-06-26T00:44:37;16.10;99.90
24091;DHT22;12272;52.426;17.100;2023-06-26T00:49:39;16.10;99.90
24091;DHT22;12272;52.426;17.100;2023-06-26T00:54:42;16.20;99.90
24091;DHT22;12272;52.426;17.100;2023-06-26T00:59:45;16.20;99.90
24091;DHT22;12272;52.426;17.100;2023-06-26T01:04:51;15.90;99.90
24091;DHT22;12272;52.426;17.100;2023-06-26T01:09:54;15.70;99.90
24091;DHT22;12272;52.426;17.100;2023-06-26T01:14:57;15.70;99.90
24091;DHT22;12272;52.426;17.100;2023-06-26T01:20:00;15.60;99.90
24091;DHT22;12272;52.426;17.100;2023-06-26T01:25:35;15.40;99.90
24091;DHT22;12272;52.426;17.100;2023-06-26T01:30:45;15.50;99.90
24091;DHT22;12272;52.426;17.100;2023-06-26T01:35:49;15.40;99.90
24091;DHT22;12272;52.426;17.100;2023-06-26T01:40:52;15.50;99.90
24091;DHT22;12272;52.426;17.100;2023-06-26T01:46:01;15.90;99.90
24091;DHT22;12272;52.426;17.100;2023-06-26T01:51:06;15.80;99.90
24091;DHT22;12272;52.426;17.100;2023-06-26T01:56:13;15.50;99.90
24091;DHT22;12272;52.426;17.100;2023-06-26T02:01:17;15.40;99.90
24091;DHT22;12272;52.426;17.100;2023-06-26T02:06:21;15.30;99.90
24091;DHT22;12272;52.426;17.100;2023-06-26T02:11:23;15.60;99.90
24091;DHT22;12272;52.426;17.100;2023-06-26T02:16:27;15.40;99.90
24091;DHT22;12272;52.426;17.100;2023-06-26T02:21:29;15.30;99.90
24091;DHT22;12272;52.426;17.100;2023-06-26T02:26:32;15.20;99.90
24091;DHT22;12272;52.426;17.100;2023-06-26T02:31:34;15.10;99.90
24091;DHT22;12272;52.426;17.100;2023-06-26T02:36:37;15.00;99.90
24091;DHT22;12272;52.426;17.100;2023-06-26T02:41:40;15.00;99.90
24091;DHT22;12272;52.426;17.100;2023-06-26T02:46:43;15.00;99.90
24091;DHT22;12272;52.426;17.100;2023-06-26T02:51:46;14.80;99.90
24091;DHT22;12272;52.426;17.100;2023-06-26T02:57:02;14.90;99.90
24091;DHT22;12272;52.426;17.100;2023-06-26T03:02:06;14.90;99.90
24091;DHT22;12272;52.426;17.100;2023-06-26T03:07:16;14.80;99.90
24091;DHT22;12272;52.426;17.100;2023-06-26T03:12:19;14.90;99.90
24091;DHT22;12272;52.426;17.100;2023-06-26T03:17:21;15.10;99.90
24091;DHT22;12272;52.426;17.100;2023-06-26T03:22:28;15.10;99.90
24091;DHT22;12272;52.426;17.100;2023-06-26T03:27:30;15.10;99.90
24091;DHT22;12272;52.426;17.100;2023-06-26T03:32:33;15.20;99.90
24091;DHT22;12272;52.426;17.100;2023-06-26T03:37:35;15.20;99.90
24091;DHT22;12272;52.426;17.100;2023-06-26T03:42:40;15.30;99.90
24091;DHT22;12272;52.426;17.100;2023-06-26T03:47:42;15.30;99.90
24091;DHT22;12272;52.426;17.100;2023-06-26T03:52:45;15.30;99.90
24091;DHT22;12272;52.426;17.100;2023-06-26T03:57:48;15.40;99.90
24091;DHT22;12272;52.426;17.100;2023-06-26T04:02:51;15.90;99.90
24091;DHT22;12272;52.426;17.100;2023-06-26T04:07:54;15.90;99.90
24091;DHT22;12272;52.426;17.100;2023-06-26T04:12:57;16.20;99.90
24091;DHT22;12272;52.426;17.100;2023-06-26T04:18:00;16.50;99.90
24091;DHT22;12272;52.426;17.100;2023-06-26T04:23:03;16.80;99.90
24091;DHT22;12272;52.426;17.100;2023-06-26T04:28:05;16.90;99.90
24091;DHT22;12272;52.426;17.100;2023-06-26T04:33:08;17.10;99.90
24091;DHT22;12272;52.426;17.100;2023-06-26T04:38:14;17.20;99.90
24091;DHT22;12272;52.426;17.100;2023-06-26T04:43:17;17.40;99.90
24091;DHT22;12272;52.426;17.100;2023-06-26T04:48:20;17.50;99.90
24091;DHT22;12272;52.426;17.100;2023-06-26T04:53:24;17.60;99.90
24091;DHT22;12272;52.426;17.100;2023-06-26T04:58:26;17.60;99.90
24091;DHT22;12272;52.426;17.100;2023-06-26T05:03:29;17.70;99.90
24091;DHT22;12272;52.426;17.100;2023-06-26T05:08:32;17.90;99.90
24091;DHT22;12272;52.426;17.100;2023-06-26T05:13:34;18.10;99.90
24091;DHT22;12272;52.426;17.100;2023-06-26T05:18:37;18.30;99.90
24091;DHT22;12272;52.426;17.100;2023-06-26T05:23:39;18.50;99.90
24091;DHT22;12272;52.426;17.100;2023-06-26T05:28:43;18.70;99.90
24091;DHT22;12272;52.426;17.100;2023-06-26T05:33:52;18.80;99.90
24091;DHT22;12272;52.426;17.100;2023-06-26T05:38:58;18.90;99.90
24091;DHT22;12272;52.426;17.100;2023-06-26T05:44:00;19.00;99.90
24091;DHT22;12272;52.426;17.100;2023-06-26T05:49:03;19.20;99.90
24091;DHT22;12272;52.426;17.100;2023-06-26T05:54:06;19.30;99.90
24091;DHT22;12272;52.426;17.100;2023-06-26T05:59:10;19.40;99.90
24091;DHT22;12272;52.426;17.100;2023-06-26T06:04:13;19.60;99.90
24091;DHT22;12272;52.426;17.100;2023-06-26T06:09:16;19.70;99.90
24091;DHT22;12272;52.426;17.100;2023-06-26T06:14:18;19.90;99.40
24091;DHT22;12272;52.426;17.100;2023-06-26T06:19:22;20.00;99.30
24091;DHT22;12272;52.426;17.100;2023-06-26T06:24:24;20.30;98.40
24091;DHT22;12272;52.426;17.100;2023-06-26T06:29:27;20.50;98.10
24091;DHT22;12272;52.426;17.100;2023-06-26T06:34:29;20.60;97.30
24091;DHT22;12272;52.426;17.100;2023-06-26T06:39:32;20.80;97.00
24091;DHT22;12272;52.426;17.100;2023-06-26T06:44:34;21.00;94.90
24091;DHT22;12272;52.426;17.100;2023-06-26T06:49:37;21.20;94.70
24091;DHT22;12272;52.426;17.100;2023-06-26T06:54:56;21.40;93.90
24091;DHT22;12272;52.426;17.100;2023-06-26T07:00:02;21.60;92.60
24091;DHT22;12272;52.426;17.100;2023-06-26T07:05:06;21.80;89.90
24091;DHT22;12272;52.426;17.100;2023-06-26T07:10:11;22.00;88.80
24091;DHT22;12272;52.426;17.100;2023-06-26T07:15:14;22.20;88.70
24091;DHT22;12272;52.426;17.100;2023-06-26T07:20:16;22.40;80.40
24091;DHT22;12272;52.426;17.100;2023-06-26T07:25:19;22.70;76.30
24091;DHT22;12272;52.426;17.100;2023-06-26T07:30:21;22.80;70.00
24091;DHT22;12272;52.426;17.100;2023-06-26T07:35:25;23.10;73.80
24091;DHT22;12272;52.426;17.100;2023-06-26T07:40:29;23.30;71.70
24091;DHT22;12272;52.426;17.100;2023-06-26T07:45:32;23.50;69.90
24091;DHT22;12272;52.426;17.100;2023-06-26T07:50:34;23.60;69.80
24091;DHT22;12272;52.426;17.100;2023-06-26T07:55:37;23.70;66.00
24091;DHT22;12272;52.426;17.100;2023-06-26T08:00:40;23.90;64.90
24091;DHT22;12272;52.426;17.100;2023-06-26T08:05:43;24.20;65.70
24091;DHT22;12272;52.426;17.100;2023-06-26T08:10:46;24.30;58.70
24091;DHT22;12272;52.426;17.100;2023-06-26T08:15:49;24.40;55.40
24091;DHT22;12272;52.426;17.100;2023-06-26T08:20:51;24.50;58.40
24091;DHT22;12272;52.426;17.100;2023-06-26T08:25:54;24.70;58.10
24091;DHT22;12272;52.426;17.100;2023-06-26T08:30:57;24.80;54.30
24091;DHT22;12272;52.426;17.100;2023-06-26T08:35:59;25.00;59.10
24091;DHT22;12272;52.426;17.100;2023-06-26T08:41:02;25.10;57.50
24091;DHT22;12272;52.426;17.100;2023-06-26T08:46:04;25.30;55.80
24091;DHT22;12272;52.426;17.100;2023-06-26T08:51:12;25.50;54.10
24091;DHT22;12272;52.426;17.100;2023-06-26T08:56:18;25.70;54.10
24091;DHT22;12272;52.426;17.100;2023-06-26T09:01:24;25.70;54.40
24091;DHT22;12272;52.426;17.100;2023-06-26T09:06:27;25.80;54.40
24091;DHT22;12272;52.426;17.100;2023-06-26T09:11:30;25.90;52.20
24091;DHT22;12272;52.426;17.100;2023-06-26T09:16:39;25.90;46.00
24091;DHT22;12272;52.426;17.100;2023-06-26T09:21:43;25.80;43.30
24091;DHT22;12272;52.426;17.100;2023-06-26T09:26:46;26.00;47.40
24091;DHT22;12272;52.426;17.100;2023-06-26T09:31:51;26.00;48.50
24091;DHT22;12272;52.426;17.100;2023-06-26T09:36:54;26.40;49.50
24091;DHT22;12272;52.426;17.100;2023-06-26T09:41:58;26.60;56.20
24091;DHT22;12272;52.426;17.100;2023-06-26T09:47:04;26.40;50.40
24091;DHT22;12272;52.426;17.100;2023-06-26T09:52:06;26.40;44.70
24091;DHT22;12272;52.426;17.100;2023-06-26T09:57:14;26.30;46.50
24091;DHT22;12272;52.426;17.100;2023-06-26T10:02:17;26.50;46.40
24091;DHT22;12272;52.426;17.100;2023-06-26T10:07:20;26.50;42.50
24091;DHT22;12272;52.426;17.100;2023-06-26T10:12:29;26.40;41.00
24091;DHT22;12272;52.426;17.100;2023-06-26T10:17:34;26.50;43.10
24091;DHT22;12272;52.426;17.100;2023-06-26T10:22:44;26.60;40.90
24091;DHT22;12272;52.426;17.100;2023-06-26T10:27:52;26.80;37.00
24091;DHT22;12272;52.426;17.100;2023-06-26T10:38:01;27.30;61.70
24091;DHT22;12272;52.426;17.100;2023-06-26T10:43:08;27.40;53.20
24091;DHT22;12272;52.426;17.100;2023-06-26T10:48:15;27.40;44.90
24091;DHT22;12272;52.426;17.100;2023-06-26T11:04:06;27.00;74.80
24091;DHT22;12272;52.426;17.100;2023-06-26T11:09:15;27.50;69.00
24091;DHT22;12272;52.426;17.100;2023-06-26T11:14:25;27.50;62.00
24091;DHT22;12272;52.426;17.100;2023-06-26T11:19:28;27.40;60.70
24091;DHT22;12272;52.426;17.100;2023-06-26T11:24:31;27.30;61.90
24091;DHT22;12272;52.426;17.100;2023-06-26T11:29:33;27.40;57.30
24091;DHT22;12272;52.426;17.100;2023-06-26T11:34:36;27.40;59.60
24091;DHT22;12272;52.426;17.100;2023-06-26T11:39:40;27.50;55.70
24091;DHT22;12272;52.426;17.100;2023-06-26T11:44:43;28.00;47.00
24091;DHT22;12272;52.426;17.100;2023-06-26T11:49:48;27.70;35.50
24091;DHT22;12272;52.426;17.100;2023-06-26T11:54:51;27.40;33.60
24091;DHT22;12272;52.426;17.100;2023-06-26T11:59:53;27.30;33.40
24091;DHT22;12272;52.426;17.100;2023-06-26T12:04:56;27.30;32.60
24091;DHT22;12272;52.426;17.100;2023-06-26T12:09:58;27.20;35.90
24091;DHT22;12272;52.426;17.100;2023-06-26T12:15:01;27.20;34.80
24091;DHT22;12272;52.426;17.100;2023-06-26T12:20:05;27.30;29.80
24091;DHT22;12272;52.426;17.100;2023-06-26T12:25:08;27.60;29.20
24091;DHT22;12272;52.426;17.100;2023-06-26T12:35:14;28.70;55.00
24091;DHT22;12272;52.426;17.100;2023-06-26T12:40:19;28.30;50.60
24091;DHT22;12272;52.426;17.100;2023-06-26T12:45:25;28.00;40.50
24091;DHT22;12272;52.426;17.100;2023-06-26T12:50:42;27.90;26.40
24091;DHT22;12272;52.426;17.100;2023-06-26T12:55:45;27.60;24.40
24091;DHT22;12272;52.426;17.100;2023-06-26T13:00:48;27.40;25.30
24091;DHT22;12272;52.426;17.100;2023-06-26T13:05:50;27.30;26.20
24091;DHT22;12272;52.426;17.100;2023-06-26T13:10:53;27.20;26.80
24091;DHT22;12272;52.426;17.100;2023-06-26T13:15:55;27.30;24.90
24091;DHT22;12272;52.426;17.100;2023-06-26T13:20:58;27.30;29.10
24091;DHT22;12272;52.426;17.100;2023-06-26T13:26:01;27.40;31.00
24091;DHT22;12272;52.426;17.100;2023-06-26T13:31:04;27.50;26.40
24091;DHT22;12272;52.426;17.100;2023-06-26T13:36:07;27.80;28.70
24091;DHT22;12272;52.426;17.100;2023-06-26T13:41:10;27.60;24.60
24091;DHT22;12272;52.426;17.100;2023-06-26T13:46:12;27.80;27.10
24091;DHT22;12272;52.426;17.100;2023-06-26T13:51:15;27.70;28.80
24091;DHT22;12272;52.426;17.100;2023-06-26T13:56:17;27.80;27.70
24091;DHT22;12272;52.426;17.100;2023-06-26T14:01:20;27.80;29.30
24091;DHT22;12272;52.426;17.100;2023-06-26T14:06:22;27.80;30.80
24091;DHT22;12272;52.426;17.100;2023-06-26T14:11:25;27.70;29.80
24091;DHT22;12272;52.426;17.100;2023-06-26T14:16:28;27.60;31.60
24091;DHT22;12272;52.426;17.100;2023-06-26T14:21:31;27.60;32.50
24091;DHT22;12272;52.426;17.100;2023-06-26T14:26:35;27.60;31.20
24091;DHT22;12272;52.426;17.100;2023-06-26T14:31:39;27.70;32.40
24091;DHT22;12272;52.426;17.100;2023-06-26T14:36:41;27.80;31.10
24091;DHT22;12272;52.426;17.100;2023-06-26T14:41:45;28.00;30.20
24091;DHT22;12272;52.426;17.100;2023-06-26T14:46:50;27.90;29.50
24091;DHT22;12272;52.426;17.100;2023-06-26T14:51:52;28.10;30.10
24091;DHT22;12272;52.426;17.100;2023-06-26T14:56:55;28.20;30.70
24091;DHT22;12272;52.426;17.100;2023-06-26T15:02:04;27.90;30.10
24091;DHT22;12272;52.426;17.100;2023-06-26T15:07:07;28.10;33.10
24091;DHT22;12272;52.426;17.100;2023-06-26T15:12:09;28.00;32.40
24091;DHT22;12272;52.426;17.100;2023-06-26T15:17:12;27.70;30.90
24091;DHT22;12272;52.426;17.100;2023-06-26T15:22:17;27.60;30.50
24091;DHT22;12272;52.426;17.100;2023-06-26T15:27:20;27.50;31.80
24091;DHT22;12272;52.426;17.100;2023-06-26T15:32:27;27.40;30.40
24091;DHT22;12272;52.426;17.100;2023-06-26T15:37:30;27.20;30.70
24091;DHT22;12272;52.426;17.100;2023-06-26T15:42:32;27.20;29.10
24091;DHT22;12272;52.426;17.100;2023-06-26T15:47:35;27.30;29.10
24091;DHT22;12272;52.426;17.100;2023-06-26T15:52:38;27.20;29.50
24091;DHT22;12272;52.426;17.100;2023-06-26T15:57:41;27.20;30.80
24091;DHT22;12272;52.426;17.100;2023-06-26T16:02:44;27.20;32.30
24091;DHT22;12272;52.426;17.100;2023-06-26T16:07:46;27.20;32.80
24091;DHT22;12272;52.426;17.100;2023-06-26T16:12:59;27.30;32.30
24091;DHT22;12272;52.426;17.100;2023-06-26T16:18:02;27.40;32.60
24091;DHT22;12272;52.426;17.100;2023-06-26T16:23:04;27.30;32.50
24091;DHT22;12272;52.426;17.100;2023-06-26T16:28:07;27.20;35.30
24091;DHT22;12272;52.426;17.100;2023-06-26T16:33:10;27.00;36.60
24091;DHT22;12272;52.426;17.100;2023-06-26T16:38:13;27.00;37.30
24091;DHT22;12272;52.426;17.100;2023-06-26T16:43:15;27.00;37.30
24091;DHT22;12272;52.426;17.100;2023-06-26T16:48:19;26.90;40.00
24091;DHT22;12272;52.426;17.100;2023-06-26T16:53:22;26.90;40.50
24091;DHT22;12272;52.426;17.100;2023-06-26T16:58:25;26.80;43.40
24091;DHT22;12272;52.426;17.100;2023-06-26T17:03:28;26.70;41.10
24091;DHT22;12272;52.426;17.100;2023-06-26T17:08:31;26.50;41.30
24091;DHT22;12272;52.426;17.100;2023-06-26T17:13:33;26.30;42.90
24091;DHT22;12272;52.426;17.100;2023-06-26T17:18:36;26.20;43.10
24091;DHT22;12272;52.426;17.100;2023-06-26T17:23:39;26.00;45.20
24091;DHT22;12272;52.426;17.100;2023-06-26T17:28:41;25.90;46.90
24091;DHT22;12272;52.426;17.100;2023-06-26T17:33:44;25.80;47.20
24091;DHT22;12272;52.426;17.100;2023-06-26T17:38:49;25.70;52.30
24091;DHT22;12272;52.426;17.100;2023-06-26T17:44:00;25.50;51.10
24091;DHT22;12272;52.426;17.100;2023-06-26T17:49:05;25.90;51.20
24091;DHT22;12272;52.426;17.100;2023-06-26T17:54:08;25.20;55.00
24091;DHT22;12272;52.426;17.100;2023-06-26T17:59:10;25.00;53.80
24091;DHT22;12272;52.426;17.100;2023-06-26T18:04:14;24.90;59.10
24091;DHT22;12272;52.426;17.100;2023-06-26T18:09:17;24.70;59.80
24091;DHT22;12272;52.426;17.100;2023-06-26T18:14:21;24.60;63.60
24091;DHT22;12272;52.426;17.100;2023-06-26T18:19:23;24.40;70.20
24091;DHT22;12272;52.426;17.100;2023-06-26T18:24:26;24.30;65.60
24091;DHT22;12272;52.426;17.100;2023-06-26T18:29:28;24.20;70.80
24091;DHT22;12272;52.426;17.100;2023-06-26T18:34:31;24.10;78.00
24091;DHT22;12272;52.426;17.100;2023-06-26T18:39:34;24.00;78.60
24091;DHT22;12272;52.426;17.100;2023-06-26T18:44:36;23.90;83.40
24091;DHT22;12272;52.426;17.100;2023-06-26T18:49:42;23.80;85.20
24091;DHT22;12272;52.426;17.100;2023-06-26T18:54:44;23.70;87.00
24091;DHT22;12272;52.426;17.100;2023-06-26T18:59:47;23.70;86.90
24091;DHT22;12272;52.426;17.100;2023-06-26T19:04:50;23.60;88.30
24091;DHT22;12272;52.426;17.100;2023-06-26T19:09:53;23.60;78.60
24091;DHT22;12272;52.426;17.100;2023-06-26T19:14:55;22.70;96.00
24091;DHT22;12272;52.426;17.100;2023-06-26T19:19:58;21.90;99.90
24091;DHT22;12272;52.426;17.100;2023-06-26T19:25:01;19.70;99.90
24091;DHT22;12272;52.426;17.100;2023-06-26T19:30:04;19.10;99.90
24091;DHT22;12272;52.426;17.100;2023-06-26T19:35:07;18.80;99.90
24091;DHT22;12272;52.426;17.100;2023-06-26T19:40:10;18.80;99.90
24091;DHT22;12272;52.426;17.100;2023-06-26T19:45:13;18.80;99.90
24091;DHT22;12272;52.426;17.100;2023-06-26T19:50:16;18.70;99.90
24091;DHT22;12272;52.426;17.100;2023-06-26T19:55:18;18.60;99.90
24091;DHT22;12272;52.426;17.100;2023-06-26T20:00:21;18.60;99.90
24091;DHT22;12272;52.426;17.100;2023-06-26T20:05:28;18.70;99.90
24091;DHT22;12272;52.426;17.100;2023-06-26T20:10:30;18.60;99.90
24091;DHT22;12272;52.426;17.100;2023-06-26T20:15:33;18.50;99.90
24091;DHT22;12272;52.426;17.100;2023-06-26T20:20:36;18.50;99.90
24091;DHT22;12272;52.426;17.100;2023-06-26T20:25:38;18.40;99.90
24091;DHT22;12272;52.426;17.100;2023-06-26T20:30:42;18.50;99.90
24091;DHT22;12272;52.426;17.100;2023-06-26T20:35:44;18.50;99.90
24091;DHT22;12272;52.426;17.100;2023-06-26T20:40:47;18.40;99.90
24091;DHT22;12272;52.426;17.100;2023-06-26T20:45:50;18.50;99.90
24091;DHT22;12272;52.426;17.100;2023-06-26T20:50:52;18.50;99.90
24091;DHT22;12272;52.426;17.100;2023-06-26T20:55:56;18.50;99.90
24091;DHT22;12272;52.426;17.100;2023-06-26T21:00:58;18.30;99.90
24091;DHT22;12272;52.426;17.100;2023-06-26T21:06:01;18.40;99.90
24091;DHT22;12272;52.426;17.100;2023-06-26T21:11:03;18.50;99.90
24091;DHT22;12272;52.426;17.100;2023-06-26T21:16:06;18.40;99.90
24091;DHT22;12272;52.426;17.100;2023-06-26T21:21:08;18.50;99.90
24091;DHT22;12272;52.426;17.100;2023-06-26T21:26:11;18.40;99.90
24091;DHT22;12272;52.426;17.100;2023-06-26T21:31:14;18.40;99.90
24091;DHT22;12272;52.426;17.100;2023-06-26T21:36:16;18.40;99.90
24091;DHT22;12272;52.426;17.100;2023-06-26T21:41:19;18.50;99.90
24091;DHT22;12272;52.426;17.100;2023-06-26T21:46:21;18.60;99.90
24091;DHT22;12272;52.426;17.100;2023-06-26T21:51:24;18.60;99.90
24091;DHT22;12272;52.426;17.100;2023-06-26T21:56:26;18.60;99.90
24091;DHT22;12272;52.426;17.100;2023-06-26T22:01:29;18.60;99.90
24091;DHT22;12272;52.426;17.100;2023-06-26T22:06:32;18.70;99.90
24091;DHT22;12272;52.426;17.100;2023-06-26T22:11:34;18.70;99.90
24091;DHT22;12272;52.426;17.100;2023-06-26T22:16:37;18.80;99.90
24091;DHT22;12272;52.426;17.100;2023-06-26T22:21:39;18.90;99.90
24091;DHT22;12272;52.426;17.100;2023-06-26T22:26:49;19.00;99.90
24091;DHT22;12272;52.426;17.100;2023-06-26T22:31:51;19.10;99.90
24091;DHT22;12272;52.426;17.100;2023-06-26T22:36:54;19.20;99.90
24091;DHT22;12272;52.426;17.100;2023-06-26T22:41:57;19.30;99.90
24091;DHT22;12272;52.426;17.100;2023-06-26T22:47:00;19.40;99.90
24091;DHT22;12272;52.426;17.100;2023-06-26T22:52:02;19.40;99.90
24091;DHT22;12272;52.426;17.100;2023-06-26T22:57:05;19.40;99.90
24091;DHT22;12272;52.426;17.100;2023-06-26T23:02:08;19.40;99.90
24091;DHT22;12272;52.426;17.100;2023-06-26T23:07:12;19.50;99.90
24091;DHT22;12272;52.426;17.100;2023-06-26T23:12:15;19.50;99.90
24091;DHT22;12272;52.426;17.100;2023-06-26T23:17:18;19.40;99.90
24091;DHT22;12272;52.426;17.100;2023-06-26T23:22:20;19.40;99.90
24091;DHT22;12272;52.426;17.100;2023-06-26T23:27:23;19.50;99.90
24091;DHT22;12272;52.426;17.100;2023-06-26T23:32:25;19.40;99.90
24091;DHT22;12272;52.426;17.100;2023-06-26T23:37:28;19.20;99.90
24091;DHT22;12272;52.426;17.100;2023-06-26T23:42:31;19.10;99.90
24091;DHT22;12272;52.426;17.100;2023-06-26T23:47:34;19.10;99.90
24091;DHT22;12272;52.426;17.100;2023-06-26T23:52:37;19.20;99.90
24091;DHT22;12272;52.426;17.100;2023-06-26T23:57:40;19.20;99.90
